This is the latest recevied weather packets stored in our database for station/object LA3HOA-15. If no packets are shown the sender has not sent any weather packets the latest 10 day(s).
| Time | Temp. | Humidity | Pressure | Rain* | Wind** | Luminosity | Snow |
|---|---|---|---|---|---|---|---|
| 1788072416 | 108° F | 18% | 679.4 mmHg | - | - | - | - |
| 1788071816 | 111° F | 18% | 589.5 mmHg | - | - | - | - |
| 1788071516 | 111° F | 18% | 575.6 mmHg | - | - | - | - |
| 1788071215 | 111° F | 19% | 575.7 mmHg | - | - | - | - |
| 1788070615 | 111° F | 20% | 575.7 mmHg | - | - | - | - |
| 1788070015 | 109° F | 22% | 575.8 mmHg | - | - | - | - |
| 1788069716 | 109° F | 23% | 575.8 mmHg | - | - | - | - |
| 1788069416 | 108° F | 24% | 575.8 mmHg | - | - | - | - |
| 1788069115 | 107° F | 25% | 575.8 mmHg | - | - | - | - |
| 1788068215 | 100° F | 31% | 612.5 mmHg | - | - | - | - |
| 1787852771 | 70° F | 32% | 767.9 mmHg | - | - | - | - |
| 1787852471 | 70° F | 32% | 768.2 mmHg | - | - | - | - |
| 1787852160 | 70° F | 32% | 767.3 mmHg | - | - | - | - |
| 1787851860 | 71° F | 31% | 765.2 mmHg | - | - | - | - |
| 1787850329 | 74° F | 30% | 755.2 mmHg | - | - | - | - |
| 1787850021 | 75° F | 30% | 747.7 mmHg | - | - | - | - |
| 1787849408 | 77° F | 28% | 732.9 mmHg | - | - | - | - |
| 1787848499 | 80° F | 30% | 721.7 mmHg | - | - | - | - |
| 1787848187 | 81° F | 29% | 720.7 mmHg | - | - | - | - |
| 1787846680 | 76° F | 35% | 730.8 mmHg | - | - | - | - |
| 1787846380 | 75° F | 34% | 730.8 mmHg | - | - | - | - |
| 1787846080 | 75° F | 33% | 730.7 mmHg | - | - | - | - |
| 1787845474 | 74° F | 32% | 730.8 mmHg | - | - | - | - |
| 1787845174 | 74° F | 31% | 730.7 mmHg | - | - | - | - |
| 1787844870 | 73° F | 29% | 730.9 mmHg | - | - | - | - |
* Rain since midnight (hover to see other rain measurements)
** Current wind speed in m/s (hover to see current wind gust speed)